Terminal Aerodrome Forecast
Issued by NWS Wichita, KS

Home | Current Version | Previous Version | Text Only | Print | Product List | Glossary On
Versions: 1 2 3 4 5 6 7 8 9 10 11 12 13 14 15 16 17 18 19 20 21
105
FTUS43 KICT 030520
TAFICT
TAF
KICT 030520Z 0306/0406 10007KT P6SM SKC
     FM030800 17005KT P6SM BKN120
     FM031500 VRB05KT P6SM SCT150
     FM040000 24007KT P6SM SKC=

USA.gov is the U.S. government's official web portal to all federal, state and local government web resources and services.